sensor_id;sensor_type;location;lat;lon;timestamp;pressure;altitude;pressure_sealevel;temperature;humidity
27729;BME280;15126;42.186;24.340;2023-04-08T00:00:27;99495.19;;;9.34;56.44
27729;BME280;15126;42.186;24.340;2023-04-08T00:02:54;99497.13;;;9.37;57.08
27729;BME280;15126;42.186;24.340;2023-04-08T00:05:21;99495.88;;;9.42;57.93
27729;BME280;15126;42.186;24.340;2023-04-08T00:07:49;99503.53;;;9.34;58.71
27729;BME280;15126;42.186;24.340;2023-04-08T00:10:16;99496.81;;;9.32;56.62
27729;BME280;15126;42.186;24.340;2023-04-08T00:12:42;99499.63;;;9.28;56.94
27729;BME280;15126;42.186;24.340;2023-04-08T00:15:09;99496.06;;;9.28;57.98
27729;BME280;15126;42.186;24.340;2023-04-08T00:17:36;99497.66;;;9.29;58.54
27729;BME280;15126;42.186;24.340;2023-04-08T00:20:04;99497.00;;;9.18;58.26
27729;BME280;15126;42.186;24.340;2023-04-08T00:22:31;99493.78;;;9.19;57.06
27729;BME280;15126;42.186;24.340;2023-04-08T00:24:59;99490.16;;;9.22;57.85
27729;BME280;15126;42.186;24.340;2023-04-08T00:27:26;99495.22;;;9.31;58.19
27729;BME280;15126;42.186;24.340;2023-04-08T00:29:53;99500.00;;;9.30;58.49
27729;BME280;15126;42.186;24.340;2023-04-08T00:32:19;99494.34;;;9.37;58.26
27729;BME280;15126;42.186;24.340;2023-04-08T00:34:46;99500.75;;;9.34;57.47
27729;BME280;15126;42.186;24.340;2023-04-08T00:37:13;99494.78;;;9.32;57.65
27729;BME280;15126;42.186;24.340;2023-04-08T00:39:40;99505.50;;;9.37;57.93
27729;BME280;15126;42.186;24.340;2023-04-08T00:42:08;99499.91;;;9.37;57.58
27729;BME280;15126;42.186;24.340;2023-04-08T00:44:36;99508.63;;;9.39;58.17
27729;BME280;15126;42.186;24.340;2023-04-08T00:47:03;99512.22;;;9.40;59.08
27729;BME280;15126;42.186;24.340;2023-04-08T00:49:30;99515.00;;;9.40;58.17
27729;BME280;15126;42.186;24.340;2023-04-08T00:51:58;99501.91;;;9.37;57.71
27729;BME280;15126;42.186;24.340;2023-04-08T00:54:25;99501.44;;;9.42;58.59
27729;BME280;15126;42.186;24.340;2023-04-08T00:56:52;99505.84;;;9.39;58.82
27729;BME280;15126;42.186;24.340;2023-04-08T00:59:20;99506.25;;;9.38;58.13
27729;BME280;15126;42.186;24.340;2023-04-08T01:01:52;99507.41;;;9.40;58.96
27729;BME280;15126;42.186;24.340;2023-04-08T01:04:27;99515.75;;;9.40;60.16
27729;BME280;15126;42.186;24.340;2023-04-08T01:07:00;99498.34;;;9.36;60.13
27729;BME280;15126;42.186;24.340;2023-04-08T01:09:32;99514.94;;;9.43;60.96
27729;BME280;15126;42.186;24.340;2023-04-08T01:12:02;99503.44;;;9.41;60.19
27729;BME280;15126;42.186;24.340;2023-04-08T01:14:34;99510.91;;;9.48;59.31
27729;BME280;15126;42.186;24.340;2023-04-08T01:17:04;99509.31;;;9.47;59.17
27729;BME280;15126;42.186;24.340;2023-04-08T01:19:33;99516.88;;;9.46;59.96
27729;BME280;15126;42.186;24.340;2023-04-08T01:22:06;99523.19;;;9.50;59.59
27729;BME280;15126;42.186;24.340;2023-04-08T01:24:39;99521.97;;;9.51;59.95
27729;BME280;15126;42.186;24.340;2023-04-08T01:27:11;99520.78;;;9.52;60.17
27729;BME280;15126;42.186;24.340;2023-04-08T01:29:41;99512.47;;;9.49;60.57
27729;BME280;15126;42.186;24.340;2023-04-08T01:32:09;99518.13;;;9.42;60.07
27729;BME280;15126;42.186;24.340;2023-04-08T01:34:37;99522.44;;;9.46;60.76
27729;BME280;15126;42.186;24.340;2023-04-08T01:37:06;99516.09;;;9.46;60.56
27729;BME280;15126;42.186;24.340;2023-04-08T01:39:34;99521.25;;;9.47;60.51
27729;BME280;15126;42.186;24.340;2023-04-08T01:42:01;99525.34;;;9.39;59.07
27729;BME280;15126;42.186;24.340;2023-04-08T01:44:30;99521.78;;;9.35;58.85
27729;BME280;15126;42.186;24.340;2023-04-08T01:46:58;99524.53;;;9.39;60.09
27729;BME280;15126;42.186;24.340;2023-04-08T01:49:26;99525.69;;;9.41;60.70
27729;BME280;15126;42.186;24.340;2023-04-08T01:51:54;99531.25;;;9.41;60.34
27729;BME280;15126;42.186;24.340;2023-04-08T01:54:22;99530.91;;;9.39;60.99
27729;BME280;15126;42.186;24.340;2023-04-08T01:56:50;99523.41;;;9.33;60.20
27729;BME280;15126;42.186;24.340;2023-04-08T01:59:19;99527.84;;;9.27;60.83
27729;BME280;15126;42.186;24.340;2023-04-08T02:01:49;99535.44;;;9.26;60.95
27729;BME280;15126;42.186;24.340;2023-04-08T02:04:17;99539.41;;;9.25;61.95
27729;BME280;15126;42.186;24.340;2023-04-08T02:06:44;99550.56;;;9.25;62.04
27729;BME280;15126;42.186;24.340;2023-04-08T02:09:11;99544.63;;;9.23;61.92
27729;BME280;15126;42.186;24.340;2023-04-08T02:11:38;99555.75;;;9.23;61.96
27729;BME280;15126;42.186;24.340;2023-04-08T02:14:04;99555.44;;;9.14;61.62
27729;BME280;15126;42.186;24.340;2023-04-08T02:16:37;99553.78;;;9.20;62.08
27729;BME280;15126;42.186;24.340;2023-04-08T02:19:11;99553.63;;;9.01;62.23
27729;BME280;15126;42.186;24.340;2023-04-08T02:21:43;99551.16;;;9.06;61.95
27729;BME280;15126;42.186;24.340;2023-04-08T02:24:12;99562.66;;;9.08;62.34
27729;BME280;15126;42.186;24.340;2023-04-08T02:26:42;99531.47;;;8.90;62.26
27729;BME280;15126;42.186;24.340;2023-04-08T02:29:11;99567.41;;;9.11;62.43
27729;BME280;15126;42.186;24.340;2023-04-08T02:31:40;99564.63;;;9.11;63.49
27729;BME280;15126;42.186;24.340;2023-04-08T02:34:09;99570.25;;;9.08;62.78
27729;BME280;15126;42.186;24.340;2023-04-08T02:36:36;99570.72;;;8.99;62.28
27729;BME280;15126;42.186;24.340;2023-04-08T02:39:05;99571.09;;;9.01;62.86
27729;BME280;15126;42.186;24.340;2023-04-08T02:41:32;99575.13;;;8.96;62.35
27729;BME280;15126;42.186;24.340;2023-04-08T02:43:59;99565.19;;;8.95;62.60
27729;BME280;15126;42.186;24.340;2023-04-08T02:46:26;99567.66;;;8.86;62.89
27729;BME280;15126;42.186;24.340;2023-04-08T02:48:53;99570.50;;;8.83;63.42
27729;BME280;15126;42.186;24.340;2023-04-08T02:51:21;99561.47;;;8.72;63.59
27729;BME280;15126;42.186;24.340;2023-04-08T02:53:48;99574.59;;;8.71;65.02
27729;BME280;15126;42.186;24.340;2023-04-08T02:56:14;99578.97;;;8.69;64.61
27729;BME280;15126;42.186;24.340;2023-04-08T02:58:41;99567.91;;;8.62;64.36
27729;BME280;15126;42.186;24.340;2023-04-08T03:01:08;99582.59;;;8.62;64.25
27729;BME280;15126;42.186;24.340;2023-04-08T03:03:35;99582.25;;;8.57;65.33
27729;BME280;15126;42.186;24.340;2023-04-08T03:06:02;99589.03;;;8.56;63.68
27729;BME280;15126;42.186;24.340;2023-04-08T03:08:30;99583.59;;;8.38;64.54
27729;BME280;15126;42.186;24.340;2023-04-08T03:10:58;99584.03;;;8.36;65.13
27729;BME280;15126;42.186;24.340;2023-04-08T03:13:25;99579.63;;;8.39;65.63
27729;BME280;15126;42.186;24.340;2023-04-08T03:15:51;99576.88;;;8.35;65.89
27729;BME280;15126;42.186;24.340;2023-04-08T03:18:18;99582.00;;;8.41;65.97
27729;BME280;15126;42.186;24.340;2023-04-08T03:20:45;99586.00;;;8.36;65.87
27729;BME280;15126;42.186;24.340;2023-04-08T03:23:12;99595.13;;;8.36;66.36
27729;BME280;15126;42.186;24.340;2023-04-08T03:25:40;99596.78;;;8.27;66.78
27729;BME280;15126;42.186;24.340;2023-04-08T03:28:07;99587.63;;;8.26;66.93
27729;BME280;15126;42.186;24.340;2023-04-08T03:30:34;99596.41;;;8.28;67.31
27729;BME280;15126;42.186;24.340;2023-04-08T03:33:01;99592.38;;;8.33;66.79
27729;BME280;15126;42.186;24.340;2023-04-08T03:35:29;99603.50;;;8.33;66.27
27729;BME280;15126;42.186;24.340;2023-04-08T03:37:57;99601.88;;;8.35;65.23
27729;BME280;15126;42.186;24.340;2023-04-08T03:40:24;99607.03;;;8.37;65.61
27729;BME280;15126;42.186;24.340;2023-04-08T03:42:52;99608.97;;;8.44;66.33
27729;BME280;15126;42.186;24.340;2023-04-08T03:45:19;99605.00;;;8.45;65.56
27729;BME280;15126;42.186;24.340;2023-04-08T03:47:46;99605.03;;;8.41;67.77
27729;BME280;15126;42.186;24.340;2023-04-08T03:50:13;99614.97;;;8.38;67.84
27729;BME280;15126;42.186;24.340;2023-04-08T03:52:40;99606.63;;;8.38;68.07
27729;BME280;15126;42.186;24.340;2023-04-08T03:55:07;99610.94;;;8.47;69.04
27729;BME280;15126;42.186;24.340;2023-04-08T03:57:34;99610.25;;;8.32;70.64
27729;BME280;15126;42.186;24.340;2023-04-08T04:00:03;99618.19;;;8.33;72.15
27729;BME280;15126;42.186;24.340;2023-04-08T04:02:30;99613.84;;;8.25;73.08
27729;BME280;15126;42.186;24.340;2023-04-08T04:04:57;99616.22;;;8.30;73.32
27729;BME280;15126;42.186;24.340;2023-04-08T04:07:23;99615.84;;;8.28;74.33
27729;BME280;15126;42.186;24.340;2023-04-08T04:09:50;99613.06;;;8.21;75.05
27729;BME280;15126;42.186;24.340;2023-04-08T04:12:20;99619.78;;;8.24;75.41
27729;BME280;15126;42.186;24.340;2023-04-08T04:14:47;99611.50;;;8.20;75.48
27729;BME280;15126;42.186;24.340;2023-04-08T04:17:15;99614.69;;;8.19;75.52
27729;BME280;15126;42.186;24.340;2023-04-08T04:19:42;99622.22;;;8.18;75.88
27729;BME280;15126;42.186;24.340;2023-04-08T04:22:09;99619.06;;;8.13;76.33
27729;BME280;15126;42.186;24.340;2023-04-08T04:24:36;99621.91;;;8.09;76.40
27729;BME280;15126;42.186;24.340;2023-04-08T04:27:02;99630.16;;;8.23;76.50
27729;BME280;15126;42.186;24.340;2023-04-08T04:29:30;99629.78;;;8.14;76.91
27729;BME280;15126;42.186;24.340;2023-04-08T04:31:57;99635.34;;;8.14;77.56
27729;BME280;15126;42.186;24.340;2023-04-08T04:34:25;99623.38;;;8.24;77.35
27729;BME280;15126;42.186;24.340;2023-04-08T04:36:52;99627.38;;;8.23;77.86
27729;BME280;15126;42.186;24.340;2023-04-08T04:39:19;99644.41;;;8.22;78.71
27729;BME280;15126;42.186;24.340;2023-04-08T04:41:45;99636.88;;;8.26;78.64
27729;BME280;15126;42.186;24.340;2023-04-08T04:44:13;99629.78;;;8.14;79.34
27729;BME280;15126;42.186;24.340;2023-04-08T04:46:40;99632.06;;;8.26;79.03
27729;BME280;15126;42.186;24.340;2023-04-08T04:49:07;99636.88;;;8.26;79.46
27729;BME280;15126;42.186;24.340;2023-04-08T04:51:35;99652.75;;;8.25;79.89
27729;BME280;15126;42.186;24.340;2023-04-08T04:54:02;99639.31;;;8.17;80.73
27729;BME280;15126;42.186;24.340;2023-04-08T04:56:29;99650.00;;;8.18;80.83
27729;BME280;15126;42.186;24.340;2023-04-08T04:58:55;99652.38;;;8.23;81.17
27729;BME280;15126;42.186;24.340;2023-04-08T05:01:22;99662.25;;;8.31;81.21
27729;BME280;15126;42.186;24.340;2023-04-08T05:03:49;99659.09;;;8.26;81.64
27729;BME280;15126;42.186;24.340;2023-04-08T05:06:16;99669.38;;;8.32;81.37
27729;BME280;15126;42.186;24.340;2023-04-08T05:08:44;99665.03;;;8.31;81.05
27729;BME280;15126;42.186;24.340;2023-04-08T05:11:11;99652.69;;;8.36;80.86
27729;BME280;15126;42.186;24.340;2023-04-08T05:13:38;99657.38;;;8.50;80.56
27729;BME280;15126;42.186;24.340;2023-04-08T05:16:05;99656.94;;;8.51;80.82
27729;BME280;15126;42.186;24.340;2023-04-08T05:18:33;99646.63;;;8.52;80.92
27729;BME280;15126;42.186;24.340;2023-04-08T05:21:00;99658.16;;;8.50;80.76
27729;BME280;15126;42.186;24.340;2023-04-08T05:23:27;99652.53;;;8.61;80.01
27729;BME280;15126;42.186;24.340;2023-04-08T05:25:55;99665.16;;;8.69;80.00
27729;BME280;15126;42.186;24.340;2023-04-08T05:28:22;99643.41;;;8.57;79.80
27729;BME280;15126;42.186;24.340;2023-04-08T05:30:49;99659.59;;;8.72;80.66
27729;BME280;15126;42.186;24.340;2023-04-08T05:33:16;99646.53;;;8.66;79.92
27729;BME280;15126;42.186;24.340;2023-04-08T05:35:43;99672.97;;;8.84;79.18
27729;BME280;15126;42.186;24.340;2023-04-08T05:38:10;99684.81;;;8.95;79.32
27729;BME280;15126;42.186;24.340;2023-04-08T05:40:37;99681.69;;;8.86;79.32
27729;BME280;15126;42.186;24.340;2023-04-08T05:43:05;99682.09;;;8.88;79.32
27729;BME280;15126;42.186;24.340;2023-04-08T05:45:32;99679.34;;;8.85;80.03
27729;BME280;15126;42.186;24.340;2023-04-08T05:47:59;99678.88;;;8.90;81.40
27729;BME280;15126;42.186;24.340;2023-04-08T05:50:26;99679.31;;;8.88;80.63
27729;BME280;15126;42.186;24.340;2023-04-08T05:52:54;99654.78;;;8.76;80.21
27729;BME280;15126;42.186;24.340;2023-04-08T05:55:21;99672.47;;;8.96;79.91
27729;BME280;15126;42.186;24.340;2023-04-08T05:57:48;99676.81;;;9.01;79.39
27729;BME280;15126;42.186;24.340;2023-04-08T06:00:16;99678.41;;;9.02;79.27
27729;BME280;15126;42.186;24.340;2023-04-08T06:02:44;99676.72;;;9.08;80.91
27729;BME280;15126;42.186;24.340;2023-04-08T06:05:11;99671.13;;;9.12;79.47
27729;BME280;15126;42.186;24.340;2023-04-08T06:07:38;99671.84;;;9.19;79.38
27729;BME280;15126;42.186;24.340;2023-04-08T06:10:07;99669.41;;;9.25;79.03
27729;BME280;15126;42.186;24.340;2023-04-08T06:12:34;99665.31;;;9.36;79.01
27729;BME280;15126;42.186;24.340;2023-04-08T06:15:07;99662.91;;;9.38;78.98
27729;BME280;15126;42.186;24.340;2023-04-08T06:17:36;99670.75;;;9.50;78.33
27729;BME280;15126;42.186;24.340;2023-04-08T06:20:04;99664.41;;;9.46;77.67
27729;BME280;15126;42.186;24.340;2023-04-08T06:22:31;99661.47;;;9.61;77.28
27729;BME280;15126;42.186;24.340;2023-04-08T06:24:58;99650.69;;;9.63;76.78
27729;BME280;15126;42.186;24.340;2023-04-08T06:27:25;99668.97;;;9.67;76.67
27729;BME280;15126;42.186;24.340;2023-04-08T06:29:52;99667.09;;;9.87;76.43
27729;BME280;15126;42.186;24.340;2023-04-08T06:32:19;99667.75;;;9.98;75.91
27729;BME280;15126;42.186;24.340;2023-04-08T06:34:48;99668.91;;;10.01;76.02
27729;BME280;15126;42.186;24.340;2023-04-08T06:37:15;99667.63;;;10.09;75.01
27729;BME280;15126;42.186;24.340;2023-04-08T06:39:41;99667.63;;;10.12;75.29
27729;BME280;15126;42.186;24.340;2023-04-08T06:42:08;99659.06;;;10.27;75.79
27729;BME280;15126;42.186;24.340;2023-04-08T06:44:35;99660.25;;;10.26;75.00
27729;BME280;15126;42.186;24.340;2023-04-08T06:47:02;99657.94;;;10.47;74.98
27729;BME280;15126;42.186;24.340;2023-04-08T06:49:29;99665.31;;;10.61;73.68
27729;BME280;15126;42.186;24.340;2023-04-08T06:51:57;99659.72;;;10.61;73.00
27729;BME280;15126;42.186;24.340;2023-04-08T06:54:24;99657.72;;;10.85;73.37
27729;BME280;15126;42.186;24.340;2023-04-08T06:56:51;99667.31;;;11.07;72.89
27729;BME280;15126;42.186;24.340;2023-04-08T06:59:18;99654.75;;;10.95;72.53
27729;BME280;15126;42.186;24.340;2023-04-08T07:01:45;99654.59;;;10.83;73.44
27729;BME280;15126;42.186;24.340;2023-04-08T07:04:12;99664.44;;;11.14;72.04
27729;BME280;15126;42.186;24.340;2023-04-08T07:06:38;99662.03;;;11.12;70.73
27729;BME280;15126;42.186;24.340;2023-04-08T07:09:06;99657.75;;;11.08;72.80
27729;BME280;15126;42.186;24.340;2023-04-08T07:11:33;99657.41;;;11.06;70.87
27729;BME280;15126;42.186;24.340;2023-04-08T07:14:00;99655.94;;;10.98;73.78
27729;BME280;15126;42.186;24.340;2023-04-08T07:16:27;99657.84;;;11.01;72.20
27729;BME280;15126;42.186;24.340;2023-04-08T07:18:54;99666.13;;;11.08;71.48
27729;BME280;15126;42.186;24.340;2023-04-08T07:21:21;99660.91;;;11.10;73.07
27729;BME280;15126;42.186;24.340;2023-04-08T07:23:48;99664.22;;;11.24;71.66
27729;BME280;15126;42.186;24.340;2023-04-08T07:26:16;99671.47;;;11.22;70.27
27729;BME280;15126;42.186;24.340;2023-04-08T07:28:43;99674.47;;;11.31;71.77
27729;BME280;15126;42.186;24.340;2023-04-08T07:31:12;99671.63;;;11.34;70.47
27729;BME280;15126;42.186;24.340;2023-04-08T07:33:39;99670.28;;;11.43;71.27
27729;BME280;15126;42.186;24.340;2023-04-08T07:36:06;99674.56;;;11.47;72.60
27729;BME280;15126;42.186;24.340;2023-04-08T07:38:34;99674.34;;;11.58;70.28
27729;BME280;15126;42.186;24.340;2023-04-08T07:41:00;99667.50;;;11.62;69.17
27729;BME280;15126;42.186;24.340;2023-04-08T07:43:29;99672.47;;;11.74;69.77
27729;BME280;15126;42.186;24.340;2023-04-08T07:45:59;99682.50;;;11.91;69.95
27729;BME280;15126;42.186;24.340;2023-04-08T07:48:28;99678.47;;;12.12;68.47
27729;BME280;15126;42.186;24.340;2023-04-08T07:50:55;99680.28;;;12.38;67.18
27729;BME280;15126;42.186;24.340;2023-04-08T07:53:22;99679.81;;;12.60;65.89
27729;BME280;15126;42.186;24.340;2023-04-08T07:55:50;99681.66;;;12.82;66.15
27729;BME280;15126;42.186;24.340;2023-04-08T07:58:17;99681.66;;;12.98;65.33
27729;BME280;15126;42.186;24.340;2023-04-08T08:00:45;99684.81;;;13.00;63.41
27729;BME280;15126;42.186;24.340;2023-04-08T08:03:12;99676.81;;;12.83;63.19
27729;BME280;15126;42.186;24.340;2023-04-08T08:05:39;99677.63;;;12.83;62.35
27729;BME280;15126;42.186;24.340;2023-04-08T08:08:06;99679.34;;;12.61;61.80
27729;BME280;15126;42.186;24.340;2023-04-08T08:10:36;99655.53;;;12.37;63.12
27729;BME280;15126;42.186;24.340;2023-04-08T08:13:02;99665.13;;;12.20;64.46
27729;BME280;15126;42.186;24.340;2023-04-08T08:15:29;99674.56;;;12.26;65.56
27729;BME280;15126;42.186;24.340;2023-04-08T08:17:58;99677.06;;;12.40;65.15
27729;BME280;15126;42.186;24.340;2023-04-08T08:20:24;99670.25;;;12.41;63.74
27729;BME280;15126;42.186;24.340;2023-04-08T08:22:51;99673.84;;;12.58;63.48
27729;BME280;15126;42.186;24.340;2023-04-08T08:25:18;99670.88;;;12.65;63.54
27729;BME280;15126;42.186;24.340;2023-04-08T08:27:45;99679.28;;;12.65;63.40
27729;BME280;15126;42.186;24.340;2023-04-08T08:30:12;99671.50;;;12.88;63.56
27729;BME280;15126;42.186;24.340;2023-04-08T08:32:39;99670.47;;;12.98;62.99
27729;BME280;15126;42.186;24.340;2023-04-08T08:35:08;99664.59;;;12.93;62.74
27729;BME280;15126;42.186;24.340;2023-04-08T08:37:34;99677.03;;;13.08;61.29
27729;BME280;15126;42.186;24.340;2023-04-08T08:40:01;99671.69;;;12.97;62.54
27729;BME280;15126;42.186;24.340;2023-04-08T08:42:31;99669.88;;;13.07;61.79
27729;BME280;15126;42.186;24.340;2023-04-08T08:45:00;99665.75;;;13.11;62.31
27729;BME280;15126;42.186;24.340;2023-04-08T08:47:28;99670.00;;;13.32;62.76
27729;BME280;15126;42.186;24.340;2023-04-08T08:49:54;99666.56;;;13.41;62.06
27729;BME280;15126;42.186;24.340;2023-04-08T08:52:23;99666.50;;;13.44;61.31
27729;BME280;15126;42.186;24.340;2023-04-08T08:54:56;99669.72;;;13.43;60.18
27729;BME280;15126;42.186;24.340;2023-04-08T08:57:24;99671.53;;;13.49;59.32
27729;BME280;15126;42.186;24.340;2023-04-08T08:59:51;99665.69;;;13.44;60.26
27729;BME280;15126;42.186;24.340;2023-04-08T09:02:25;99680.53;;;13.57;61.56
27729;BME280;15126;42.186;24.340;2023-04-08T09:04:57;99676.31;;;13.36;61.00
27729;BME280;15126;42.186;24.340;2023-04-08T09:07:27;99681.09;;;13.52;60.64
27729;BME280;15126;42.186;24.340;2023-04-08T09:09:55;99676.81;;;13.76;61.08
27729;BME280;15126;42.186;24.340;2023-04-08T09:12:24;99671.59;;;13.91;61.18
27729;BME280;15126;42.186;24.340;2023-04-08T09:15:02;99669.13;;;13.93;61.03
27729;BME280;15126;42.186;24.340;2023-04-08T09:17:33;99676.72;;;13.80;58.51
27729;BME280;15126;42.186;24.340;2023-04-08T09:20:04;99670.50;;;14.01;57.64
27729;BME280;15126;42.186;24.340;2023-04-08T09:22:54;99670.72;;;14.06;56.96
27729;BME280;15126;42.186;24.340;2023-04-08T09:25:24;99658.13;;;13.86;59.10
27729;BME280;15126;42.186;24.340;2023-04-08T09:27:52;99661.94;;;13.92;57.40
27729;BME280;15126;42.186;24.340;2023-04-08T09:30:20;99658.69;;;13.93;58.78
27729;BME280;15126;42.186;24.340;2023-04-08T09:32:48;99661.84;;;13.95;58.30
27729;BME280;15126;42.186;24.340;2023-04-08T09:35:16;99659.97;;;14.05;55.83
27729;BME280;15126;42.186;24.340;2023-04-08T09:37:45;99655.34;;;13.98;57.33
27729;BME280;15126;42.186;24.340;2023-04-08T09:40:12;99656.94;;;13.99;59.67
27729;BME280;15126;42.186;24.340;2023-04-08T09:42:43;99651.47;;;14.21;58.57
27729;BME280;15126;42.186;24.340;2023-04-08T09:45:11;99661.34;;;14.25;58.59
27729;BME280;15126;42.186;24.340;2023-04-08T09:47:46;99627.97;;;14.02;56.07
27729;BME280;15126;42.186;24.340;2023-04-08T09:50:19;99657.06;;;14.21;56.88
27729;BME280;15126;42.186;24.340;2023-04-08T09:52:52;99651.16;;;14.44;58.13
27729;BME280;15126;42.186;24.340;2023-04-08T09:55:25;99655.22;;;14.56;53.77
27729;BME280;15126;42.186;24.340;2023-04-08T09:57:57;99652.06;;;14.54;56.34
27729;BME280;15126;42.186;24.340;2023-04-08T10:00:30;99651.50;;;14.59;55.08
27729;BME280;15126;42.186;24.340;2023-04-08T10:03:01;99646.44;;;14.41;56.24
27729;BME280;15126;42.186;24.340;2023-04-08T10:05:32;99652.22;;;14.09;56.23
27729;BME280;15126;42.186;24.340;2023-04-08T10:08:02;99654.13;;;14.12;56.02
27729;BME280;15126;42.186;24.340;2023-04-08T10:10:29;99647.63;;;14.15;55.98
27729;BME280;15126;42.186;24.340;2023-04-08T10:12:57;99648.44;;;14.15;55.55
27729;BME280;15126;42.186;24.340;2023-04-08T10:15:25;99641.50;;;14.32;55.92
27729;BME280;15126;42.186;24.340;2023-04-08T10:17:52;99636.91;;;14.39;57.59
27729;BME280;15126;42.186;24.340;2023-04-08T10:20:49;99628.47;;;14.64;57.03
27729;BME280;15126;42.186;24.340;2023-04-08T10:23:17;99625.44;;;14.71;53.40
27729;BME280;15126;42.186;24.340;2023-04-08T10:25:46;99629.28;;;14.64;53.72
27729;BME280;15126;42.186;24.340;2023-04-08T10:28:23;99623.88;;;14.70;54.46
27729;BME280;15126;42.186;24.340;2023-04-08T10:30:50;99621.50;;;14.81;52.63
27729;BME280;15126;42.186;24.340;2023-04-08T10:33:21;99619.44;;;14.94;54.41
27729;BME280;15126;42.186;24.340;2023-04-08T10:35:52;99616.72;;;15.03;52.63
27729;BME280;15126;42.186;24.340;2023-04-08T10:38:20;99607.69;;;15.21;51.88
27729;BME280;15126;42.186;24.340;2023-04-08T10:40:48;99609.09;;;15.38;52.86
27729;BME280;15126;42.186;24.340;2023-04-08T10:43:15;99604.81;;;15.46;51.85
27729;BME280;15126;42.186;24.340;2023-04-08T10:45:43;99592.50;;;15.53;51.23
27729;BME280;15126;42.186;24.340;2023-04-08T10:48:14;99606.88;;;15.76;51.60
27729;BME280;15126;42.186;24.340;2023-04-08T10:50:42;99608.59;;;15.74;49.65
27729;BME280;15126;42.186;24.340;2023-04-08T10:53:09;99600.50;;;15.76;49.49
27729;BME280;15126;42.186;24.340;2023-04-08T10:55:38;99598.28;;;15.71;50.85
27729;BME280;15126;42.186;24.340;2023-04-08T10:58:06;99590.66;;;15.80;49.95
27729;BME280;15126;42.186;24.340;2023-04-08T11:00:35;99605.38;;;15.63;50.31
27729;BME280;15126;42.186;24.340;2023-04-08T11:03:03;99602.97;;;15.52;52.75
27729;BME280;15126;42.186;24.340;2023-04-08T11:05:31;99596.31;;;15.59;52.81
27729;BME280;15126;42.186;24.340;2023-04-08T11:07:58;99596.56;;;15.52;51.50
27729;BME280;15126;42.186;24.340;2023-04-08T11:10:25;99595.25;;;15.43;50.88
27729;BME280;15126;42.186;24.340;2023-04-08T11:12:54;99597.50;;;15.36;50.80
27729;BME280;15126;42.186;24.340;2023-04-08T11:15:23;99585.72;;;15.28;51.35
27729;BME280;15126;42.186;24.340;2023-04-08T11:17:50;99585.53;;;15.23;51.52
27729;BME280;15126;42.186;24.340;2023-04-08T11:20:18;99583.91;;;15.00;51.32
27729;BME280;15126;42.186;24.340;2023-04-08T11:22:46;99584.69;;;15.01;51.95
27729;BME280;15126;42.186;24.340;2023-04-08T11:25:13;99586.72;;;15.00;52.35
27729;BME280;15126;42.186;24.340;2023-04-08T11:27:40;99588.88;;;14.96;51.74
27729;BME280;15126;42.186;24.340;2023-04-08T11:30:09;99580.13;;;14.94;53.75
27729;BME280;15126;42.186;24.340;2023-04-08T11:32:36;99585.22;;;14.86;53.06
27729;BME280;15126;42.186;24.340;2023-04-08T11:35:04;99580.50;;;14.83;52.41
27729;BME280;15126;42.186;24.340;2023-04-08T11:37:36;99582.47;;;14.96;52.69
27729;BME280;15126;42.186;24.340;2023-04-08T11:40:07;99574.94;;;14.93;52.48
27729;BME280;15126;42.186;24.340;2023-04-08T11:42:34;99573.22;;;15.08;52.22
27729;BME280;15126;42.186;24.340;2023-04-08T11:45:00;99564.75;;;15.20;53.21
27729;BME280;15126;42.186;24.340;2023-04-08T11:47:33;99566.56;;;15.48;54.98
27729;BME280;15126;42.186;24.340;2023-04-08T11:50:00;99568.19;;;15.59;51.47
27729;BME280;15126;42.186;24.340;2023-04-08T11:52:40;99565.03;;;15.78;51.03
27729;BME280;15126;42.186;24.340;2023-04-08T11:55:08;99560.53;;;15.81;52.02
27729;BME280;15126;42.186;24.340;2023-04-08T11:57:35;99567.13;;;15.87;50.88
27729;BME280;15126;42.186;24.340;2023-04-08T12:00:03;99552.88;;;15.81;50.95
27729;BME280;15126;42.186;24.340;2023-04-08T12:02:32;99550.81;;;15.82;50.64
27729;BME280;15126;42.186;24.340;2023-04-08T12:04:59;99543.53;;;15.93;51.29
27729;BME280;15126;42.186;24.340;2023-04-08T12:07:27;99551.97;;;15.84;51.08
27729;BME280;15126;42.186;24.340;2023-04-08T12:09:54;99545.00;;;15.98;50.36
27729;BME280;15126;42.186;24.340;2023-04-08T12:12:21;99550.16;;;15.99;51.45
27729;BME280;15126;42.186;24.340;2023-04-08T12:14:48;99543.00;;;16.07;52.40
27729;BME280;15126;42.186;24.340;2023-04-08T12:17:14;99542.56;;;16.18;50.78
27729;BME280;15126;42.186;24.340;2023-04-08T12:19:43;99531.44;;;16.15;49.41
27729;BME280;15126;42.186;24.340;2023-04-08T12:22:09;99529.28;;;15.88;50.64
27729;BME280;15126;42.186;24.340;2023-04-08T12:24:36;99529.59;;;15.90;50.35
27729;BME280;15126;42.186;24.340;2023-04-08T12:27:03;99528.78;;;16.11;50.25
27729;BME280;15126;42.186;24.340;2023-04-08T12:29:30;99535.03;;;16.06;49.23
27729;BME280;15126;42.186;24.340;2023-04-08T12:31:57;99522.63;;;15.94;49.58
27729;BME280;15126;42.186;24.340;2023-04-08T12:34:24;99522.00;;;15.99;52.24
27729;BME280;15126;42.186;24.340;2023-04-08T12:36:52;99512.28;;;15.91;49.36
27729;BME280;15126;42.186;24.340;2023-04-08T12:39:19;99511.91;;;15.80;51.56
27729;BME280;15126;42.186;24.340;2023-04-08T12:41:46;99512.22;;;15.82;49.82
27729;BME280;15126;42.186;24.340;2023-04-08T12:44:13;99501.25;;;16.06;51.46
27729;BME280;15126;42.186;24.340;2023-04-08T12:46:40;99499.88;;;16.11;49.36
27729;BME280;15126;42.186;24.340;2023-04-08T12:49:07;99474.88;;;15.82;49.06
27729;BME280;15126;42.186;24.340;2023-04-08T12:51:34;99501.34;;;15.93;48.93
27729;BME280;15126;42.186;24.340;2023-04-08T12:54:02;99498.31;;;16.19;49.46
27729;BME280;15126;42.186;24.340;2023-04-08T12:56:30;99498.19;;;16.31;50.60
27729;BME280;15126;42.186;24.340;2023-04-08T12:58:57;99493.72;;;16.52;48.56